Time;durP1;ratioP1;P1;durP2;ratioP2;P2;SDS_P1;SDS_P2;PMS_P1;PMS_P2;Temp;Humidity;BMP_temperature;BMP_pressure;BME280_temperature;BME280_humidity;BME280_pressure;Samples;Min_cycle;Max_cycle;Signal;HPM_P1;HPM_P2
2023/01/31 00:00:55;;;;;;;16.55;3.05;;;3.20;99.90;;;;;;4988127;28;20050;-87
2023/01/31 00:03:21;;;;;;;16.40;4.47;;;3.20;99.90;;;;;;4969367;28;20129;-88
2023/01/31 00:05:46;;;;;;;19.33;4.50;;;4.20;99.90;;;;;;4984543;28;20229;-88
2023/01/31 00:08:14;;;;;;;15.32;3.50;;;3.30;99.90;;;;;;4965717;28;20055;-87
2023/01/31 00:10:40;;;;;;;18.35;3.85;;;3.20;99.90;;;;;;4975529;28;20046;-87
2023/01/31 00:13:05;;;;;;;16.05;3.55;;;3.20;99.90;;;;;;4978677;28;20198;-87
2023/01/31 00:15:31;;;;;;;24.73;3.75;;;3.20;99.90;;;;;;4970910;28;20521;-88
2023/01/31 00:17:57;;;;;;;18.95;3.40;;;3.10;99.90;;;;;;4967262;28;20051;-86
2023/01/31 00:20:22;;;;;;;18.58;3.30;;;3.20;99.90;;;;;;4970360;28;20054;-88
2023/01/31 00:22:48;;;;;;;14.00;2.95;;;3.20;99.90;;;;;;4953747;28;20042;-88
2023/01/31 00:25:14;;;;;;;16.58;3.25;;;3.70;99.90;;;;;;4971069;28;20496;-88
2023/01/31 00:27:39;;;;;;;22.23;3.40;;;3.10;99.90;;;;;;4981103;28;20034;-84
2023/01/31 00:30:07;;;;;;;16.83;3.33;;;3.10;99.90;;;;;;4982175;28;20072;-88
2023/01/31 00:32:35;;;;;;;19.45;4.05;;;3.10;99.90;;;;;;4951915;28;20051;-87
2023/01/31 00:35:00;;;;;;;21.48;3.58;;;3.10;99.90;;;;;;4984350;28;20043;-88
2023/01/31 00:37:26;;;;;;;13.63;3.20;;;3.10;99.90;;;;;;4957477;28;20038;-87
2023/01/31 00:39:51;;;;;;;16.23;3.33;;;3.00;99.90;;;;;;4968516;28;20137;-86
2023/01/31 00:42:17;;;;;;;23.40;3.88;;;3.00;99.90;;;;;;4969463;28;20050;-88
2023/01/31 00:44:43;;;;;;;17.92;2.88;;;2.70;99.90;;;;;;4968232;28;20365;-88
2023/01/31 00:47:08;;;;;;;14.25;3.10;;;2.90;99.90;;;;;;4972611;28;20088;-88
2023/01/31 00:49:34;;;;;;;19.08;2.97;;;2.80;99.90;;;;;;4964155;28;20046;-86
2023/01/31 00:52:00;;;;;;;17.33;2.97;;;2.80;99.90;;;;;;4976838;28;20051;-88
2023/01/31 00:54:25;;;;;;;19.80;2.95;;;2.80;99.90;;;;;;4965249;28;20047;-88
2023/01/31 00:56:51;;;;;;;16.05;2.95;;;2.80;99.90;;;;;;4958856;28;20047;-88
2023/01/31 00:59:17;;;;;;;11.30;2.60;;;2.80;99.90;;;;;;4970776;28;20104;-88
2023/01/31 01:01:42;;;;;;;17.58;3.25;;;2.80;99.90;;;;;;4986463;28;20055;-89
2023/01/31 01:04:08;;;;;;;14.10;2.92;;;2.80;99.90;;;;;;4980341;28;20058;-88
2023/01/31 01:06:33;;;;;;;14.85;2.90;;;2.80;99.90;;;;;;4954525;28;20046;-88
2023/01/31 01:08:59;;;;;;;17.63;3.35;;;2.70;99.90;;;;;;4977755;28;20069;-88
2023/01/31 01:11:30;;;;;;;12.90;2.80;;;2.80;99.90;;;;;;4964113;28;20194;-89
2023/01/31 01:13:56;;;;;;;15.70;3.50;;;2.80;99.90;;;;;;4984618;28;20137;-89
2023/01/31 01:16:25;;;;;;;17.10;2.72;;;2.70;99.90;;;;;;4951131;28;20046;-88
2023/01/31 01:18:53;;;;;;;14.23;2.80;;;2.70;99.90;;;;;;4966192;28;20482;-89
2023/01/31 01:21:25;;;;;;;15.50;2.88;;;2.70;99.90;;;;;;4983070;28;20062;-88
2023/01/31 01:23:52;;;;;;;15.60;2.87;;;2.70;99.90;;;;;;4952030;28;20061;-87
2023/01/31 01:26:24;;;;;;;14.30;3.22;;;2.70;99.90;;;;;;4984788;28;20063;-87
2023/01/31 01:28:50;;;;;;;12.07;3.03;;;2.70;99.90;;;;;;4985199;28;20043;-86
2023/01/31 01:31:16;;;;;;;16.65;3.33;;;2.60;99.90;;;;;;4981942;28;20121;-87
2023/01/31 01:33:43;;;;;;;16.73;4.10;;;2.60;99.90;;;;;;4984232;28;20412;-88
2023/01/31 01:36:16;;;;;;;18.27;2.78;;;2.60;99.90;;;;;;4960404;28;20449;-87
2023/01/31 01:38:42;;;;;;;12.25;2.90;;;3.30;99.90;;;;;;4956527;28;20053;-87
2023/01/31 01:41:10;;;;;;;17.38;2.97;;;2.60;99.90;;;;;;4979120;28;20460;-87
2023/01/31 01:43:47;;;;;;;17.15;2.60;;;2.50;99.90;;;;;;4966548;28;20039;-87
2023/01/31 01:46:54;;;;;;;12.05;2.55;;;2.50;99.90;;;;;;4978741;28;20104;-88
2023/01/31 01:49:31;;;;;;;11.52;3.00;;;2.50;99.90;;;;;;4926441;29;20158;-87
2023/01/31 01:52:01;;;;;;;17.60;2.88;;;2.40;99.90;;;;;;4910852;29;20070;-88
2023/01/31 01:54:35;;;;;;;14.65;2.72;;;2.20;99.90;;;;;;4943366;28;20129;-87
2023/01/31 01:57:03;;;;;;;13.23;2.90;;;2.80;99.90;;;;;;4973805;28;20137;-88
2023/01/31 01:59:49;;;;;;;16.88;3.25;;;2.40;99.90;;;;;;4968641;28;20039;-88
2023/01/31 02:02:16;;;;;;;16.05;2.72;;;2.40;99.90;;;;;;4967525;28;20489;-87
2023/01/31 02:04:48;;;;;;;13.07;2.38;;;2.50;99.90;;;;;;4966921;28;20047;-87
2023/01/31 02:07:14;;;;;;;10.73;2.15;;;3.30;99.90;;;;;;4957123;28;20706;-87
2023/01/31 02:09:55;;;;;;;13.23;2.90;;;2.40;99.90;;;;;;4968180;28;20051;-87
2023/01/31 02:12:23;;;;;;;10.60;2.40;;;2.40;99.90;;;;;;4966652;28;20043;-88
2023/01/31 02:14:50;;;;;;;9.13;2.42;;;2.30;99.90;;;;;;4971397;28;20042;-88
2023/01/31 02:17:22;;;;;;;14.80;3.10;;;2.30;99.90;;;;;;4987371;28;20613;-88
2023/01/31 02:20:06;;;;;;;10.57;2.85;;;2.20;99.90;;;;;;4987876;28;20053;-88
2023/01/31 02:22:53;;;;;;;16.55;3.00;;;2.20;99.90;;;;;;4970988;28;20062;-88
2023/01/31 02:25:42;;;;;;;15.43;2.33;;;2.30;99.90;;;;;;4972802;28;20125;-87
2023/01/31 02:28:28;;;;;;;12.45;2.42;;;2.20;99.90;;;;;;4986004;28;20137;-88
2023/01/31 02:31:24;;;;;;;16.85;2.67;;;2.30;99.90;;;;;;4955915;28;20058;-88
2023/01/31 02:34:27;;;;;;;12.57;2.13;;;2.30;99.90;;;;;;4981829;28;20069;-88
2023/01/31 02:37:12;;;;;;;11.70;2.88;;;2.30;99.90;;;;;;4958801;28;20138;-87
2023/01/31 02:39:47;;;;;;;14.07;2.70;;;2.30;99.90;;;;;;5000676;28;20053;-88
2023/01/31 02:42:46;;;;;;;12.90;2.33;;;2.30;99.90;;;;;;4990541;28;20100;-87
2023/01/31 02:45:26;;;;;;;11.20;2.17;;;2.30;99.90;;;;;;4956819;28;20046;-88
2023/01/31 02:48:16;;;;;;;13.20;2.92;;;2.40;99.90;;;;;;4964213;28;20089;-88
2023/01/31 02:51:05;;;;;;;17.52;3.08;;;2.40;99.90;;;;;;4965873;28;20051;-88
2023/01/31 02:53:49;;;;;;;12.95;2.50;;;2.50;99.90;;;;;;4983738;28;20069;-88
2023/01/31 02:56:22;;;;;;;10.57;2.72;;;2.50;99.90;;;;;;4956614;28;20438;-88
2023/01/31 02:58:59;;;;;;;16.90;2.88;;;2.60;99.90;;;;;;4957244;28;20046;-87
2023/01/31 03:01:40;;;;;;;14.45;3.47;;;2.70;99.90;;;;;;4971390;28;20046;-87
2023/01/31 03:04:09;;;;;;;11.80;2.83;;;2.70;99.90;;;;;;4969049;28;20042;-87
2023/01/31 03:06:34;;;;;;;17.33;3.05;;;2.80;99.90;;;;;;4982074;28;20050;-86
2023/01/31 03:09:28;;;;;;;17.13;3.72;;;2.90;99.90;;;;;;4971848;28;20047;-86
2023/01/31 03:12:44;;;;;;;16.40;3.00;;;3.00;99.90;;;;;;4972118;28;20058;-86
2023/01/31 03:18:30;;;;;;;10.30;2.72;;;3.10;99.90;;;;;;4986619;28;20066;-87
2023/01/31 03:21:06;;;;;;;20.88;2.63;;;3.10;99.90;;;;;;4979080;28;20062;-86
2023/01/31 03:23:34;;;;;;;13.93;3.40;;;3.20;99.90;;;;;;4987541;28;20417;-87
2023/01/31 03:26:03;;;;;;;17.17;3.15;;;3.80;99.90;;;;;;4990229;28;20057;-87
2023/01/31 03:28:34;;;;;;;16.75;3.03;;;3.30;99.90;;;;;;4980954;28;20505;-87
2023/01/31 03:31:07;;;;;;;14.85;3.13;;;3.30;99.90;;;;;;4984709;28;20143;-86
2023/01/31 03:33:43;;;;;;;16.98;3.47;;;3.40;99.90;;;;;;4963331;28;20493;-87
2023/01/31 03:36:29;;;;;;;8.23;2.47;;;3.40;99.90;;;;;;4974158;28;20504;-88
2023/01/31 03:39:00;;;;;;;15.52;3.58;;;3.40;99.90;;;;;;4959336;28;20862;-88
2023/01/31 03:41:54;;;;;;;12.27;2.60;;;3.40;99.90;;;;;;4990538;28;20045;-86
2023/01/31 03:44:50;;;;;;;11.73;2.85;;;3.40;99.90;;;;;;4986733;28;20501;-85
2023/01/31 03:47:34;;;;;;;15.20;3.45;;;3.50;99.90;;;;;;4990343;28;20108;-87
2023/01/31 03:50:07;;;;;;;11.75;3.15;;;3.50;99.90;;;;;;4986149;28;20093;-88
2023/01/31 03:52:39;;;;;;;9.35;3.42;;;4.10;99.90;;;;;;4989156;28;20401;-89
2023/01/31 03:55:20;;;;;;;13.38;2.80;;;3.60;99.90;;;;;;4987903;28;20050;-88
2023/01/31 03:57:50;;;;;;;12.35;2.88;;;3.60;99.90;;;;;;4963253;28;20044;-88
2023/01/31 04:00:20;;;;;;;11.25;3.47;;;3.60;99.90;;;;;;4976560;28;20464;-87
2023/01/31 04:02:51;;;;;;;16.02;2.95;;;3.60;99.90;;;;;;4987947;28;20597;-87
2023/01/31 04:05:21;;;;;;;16.48;3.25;;;3.60;99.90;;;;;;4981740;28;20439;-85
2023/01/31 04:07:47;;;;;;;17.67;3.63;;;3.70;99.90;;;;;;4989148;28;20052;-87
2023/01/31 04:10:18;;;;;;;14.48;3.25;;;3.80;99.90;;;;;;4988356;28;20042;-85
2023/01/31 04:12:44;;;;;;;14.35;2.60;;;3.80;99.90;;;;;;4987437;28;20057;-86
2023/01/31 04:15:11;;;;;;;11.10;2.95;;;3.80;99.90;;;;;;4980217;28;20050;-87
2023/01/31 04:17:36;;;;;;;15.07;3.83;;;3.80;99.90;;;;;;4971848;28;20125;-87
2023/01/31 04:20:04;;;;;;;17.17;3.75;;;3.90;99.90;;;;;;4941842;28;20074;-88
2023/01/31 04:22:30;;;;;;;14.65;3.60;;;3.90;99.90;;;;;;4979083;28;20049;-84
2023/01/31 04:24:56;;;;;;;7.72;2.75;;;3.90;99.90;;;;;;4990882;28;20415;-85
2023/01/31 04:27:21;;;;;;;17.55;3.80;;;3.90;99.90;;;;;;4958391;28;20086;-87
2023/01/31 04:29:47;;;;;;;19.15;3.70;;;4.00;99.90;;;;;;4988187;28;20461;-88
2023/01/31 04:32:12;;;;;;;19.15;3.83;;;4.00;99.90;;;;;;4971758;28;20454;-87
2023/01/31 04:34:38;;;;;;;14.55;3.58;;;4.00;99.90;;;;;;4986972;28;20187;-87
2023/01/31 04:37:08;;;;;;;15.50;3.60;;;4.10;99.90;;;;;;4987281;28;20852;-87
2023/01/31 04:39:33;;;;;;;17.33;3.97;;;4.60;99.90;;;;;;4989644;28;20085;-87
2023/01/31 04:41:59;;;;;;;15.93;4.03;;;4.00;99.90;;;;;;4957285;28;20134;-87
2023/01/31 04:44:24;;;;;;;17.00;4.68;;;4.00;99.90;;;;;;4981423;28;20050;-85
2023/01/31 04:46:50;;;;;;;19.13;3.75;;;4.10;99.90;;;;;;4987573;28;20435;-85
2023/01/31 04:49:16;;;;;;;15.52;3.85;;;4.10;99.90;;;;;;4970353;28;20057;-86
2023/01/31 04:51:41;;;;;;;19.75;4.82;;;4.10;99.90;;;;;;4970159;28;20049;-87
2023/01/31 04:54:07;;;;;;;19.30;4.10;;;4.10;99.90;;;;;;4984448;28;20148;-85
2023/01/31 04:56:33;;;;;;;22.70;4.45;;;4.20;99.90;;;;;;4970829;28;20504;-85
2023/01/31 04:58:58;;;;;;;19.58;4.57;;;4.20;99.90;;;;;;4988539;28;20046;-85
2023/01/31 05:01:25;;;;;;;19.58;4.60;;;4.20;99.90;;;;;;4986140;28;20097;-87
2023/01/31 05:03:51;;;;;;;19.67;4.43;;;4.30;99.90;;;;;;4988143;28;20557;-86
2023/01/31 05:06:16;;;;;;;13.73;3.65;;;4.30;99.90;;;;;;4988222;28;20117;-84
2023/01/31 05:08:42;;;;;;;18.58;3.95;;;4.30;99.90;;;;;;4981792;28;20469;-85
2023/01/31 05:11:08;;;;;;;19.70;4.25;;;4.30;99.90;;;;;;4989044;28;20069;-87
2023/01/31 05:13:37;;;;;;;24.35;5.03;;;4.30;99.90;;;;;;4985854;28;20156;-84
2023/01/31 05:16:09;;;;;;;18.67;4.95;;;4.90;99.90;;;;;;4976530;28;20077;-88
2023/01/31 05:18:35;;;;;;;22.20;5.30;;;4.40;99.90;;;;;;4989827;28;20062;-85
2023/01/31 05:21:02;;;;;;;21.38;4.55;;;4.40;99.90;;;;;;4975262;28;20071;-86
2023/01/31 05:23:28;;;;;;;21.92;4.20;;;4.50;99.90;;;;;;4974449;28;20050;-87
2023/01/31 05:25:53;;;;;;;16.65;4.38;;;4.50;99.90;;;;;;4952438;28;20051;-84
2023/01/31 05:28:19;;;;;;;18.33;4.55;;;4.60;99.90;;;;;;4969655;28;20157;-86
2023/01/31 05:30:45;;;;;;;20.63;4.18;;;4.60;99.90;;;;;;4986849;28;20050;-84
2023/01/31 05:33:11;;;;;;;18.67;4.20;;;4.60;99.90;;;;;;4980683;28;20096;-86
2023/01/31 05:35:38;;;;;;;18.77;5.05;;;4.60;99.90;;;;;;4979842;28;20493;-87
2023/01/31 05:38:04;;;;;;;18.02;4.15;;;4.50;99.90;;;;;;4982041;28;20085;-85
2023/01/31 05:40:29;;;;;;;18.65;5.28;;;4.60;99.90;;;;;;4980091;28;20089;-85
2023/01/31 05:42:56;;;;;;;19.15;5.93;;;4.60;99.90;;;;;;4987397;28;20042;-87
2023/01/31 05:45:22;;;;;;;17.33;4.65;;;4.60;99.90;;;;;;4986090;28;20125;-87
2023/01/31 05:47:48;;;;;;;22.27;5.40;;;4.60;99.90;;;;;;4970562;28;20125;-86
2023/01/31 05:50:15;;;;;;;25.52;5.05;;;4.70;99.90;;;;;;4984355;28;20122;-86
2023/01/31 05:52:41;;;;;;;23.23;5.35;;;4.70;99.90;;;;;;4959056;28;20038;-84
2023/01/31 05:55:07;;;;;;;18.13;5.18;;;4.60;99.90;;;;;;4969410;28;20088;-87
2023/01/31 05:57:32;;;;;;;21.92;5.25;;;4.60;99.90;;;;;;4986578;28;20085;-85
2023/01/31 05:59:59;;;;;;;23.17;5.43;;;4.60;99.90;;;;;;4970593;28;20093;-87
2023/01/31 06:02:24;;;;;;;25.17;5.43;;;4.60;99.90;;;;;;4986218;28;20523;-86
2023/01/31 06:04:50;;;;;;;20.23;5.65;;;4.60;99.90;;;;;;4969591;28;20083;-87
2023/01/31 06:07:15;;;;;;;22.00;5.30;;;4.60;99.90;;;;;;4970159;28;20485;-85
2023/01/31 06:09:41;;;;;;;25.02;6.28;;;4.60;99.90;;;;;;4986001;28;20044;-86
2023/01/31 06:12:12;;;;;;;18.98;6.22;;;4.60;99.90;;;;;;4970989;28;20749;-85
2023/01/31 06:14:38;;;;;;;23.45;5.93;;;4.60;99.90;;;;;;4971971;28;20474;-87
2023/01/31 06:17:04;;;;;;;21.67;6.18;;;5.10;99.90;;;;;;4978697;28;20046;-86
2023/01/31 06:19:29;;;;;;;19.52;6.78;;;4.60;99.90;;;;;;4985935;28;20112;-85
2023/01/31 06:21:55;;;;;;;24.58;6.85;;;4.60;99.90;;;;;;4986051;28;20058;-87
2023/01/31 06:24:21;;;;;;;25.90;6.25;;;4.70;99.90;;;;;;4981716;28;20142;-88
2023/01/31 06:26:46;;;;;;;21.67;7.40;;;4.60;99.90;;;;;;4983067;28;20074;-86
2023/01/31 06:29:12;;;;;;;22.50;7.45;;;4.70;99.90;;;;;;4988666;28;20104;-85
2023/01/31 06:31:37;;;;;;;25.48;7.15;;;4.70;99.90;;;;;;4953063;28;20046;-87
2023/01/31 06:34:03;;;;;;;29.25;7.50;;;4.70;99.90;;;;;;4983394;28;20121;-88
2023/01/31 06:36:32;;;;;;;22.73;6.97;;;4.70;99.90;;;;;;4976969;28;20067;-86
2023/01/31 06:38:58;;;;;;;20.73;7.10;;;4.80;99.90;;;;;;4970977;28;20042;-87
2023/01/31 06:41:27;;;;;;;22.13;6.75;;;4.80;99.90;;;;;;4970987;28;20053;-86
2023/01/31 06:43:52;;;;;;;21.88;6.72;;;4.80;99.90;;;;;;4976655;28;20128;-88
2023/01/31 06:46:18;;;;;;;28.42;7.40;;;4.80;99.90;;;;;;4957166;28;20121;-87
2023/01/31 06:48:44;;;;;;;20.73;7.20;;;4.90;99.90;;;;;;4956655;28;20075;-87
2023/01/31 06:51:09;;;;;;;23.10;7.63;;;4.90;99.90;;;;;;4935160;28;20444;-87
2023/01/31 06:53:35;;;;;;;22.25;7.40;;;5.00;99.90;;;;;;4951267;28;20110;-86
2023/01/31 06:56:00;;;;;;;25.65;6.88;;;5.00;99.90;;;;;;4951364;28;20478;-85
2023/01/31 06:58:27;;;;;;;29.67;7.45;;;5.00;99.90;;;;;;4968768;28;20054;-87
2023/01/31 07:00:55;;;;;;;23.70;7.07;;;5.00;99.90;;;;;;4991202;28;20077;-87
2023/01/31 07:03:21;;;;;;;22.48;7.32;;;5.40;99.90;;;;;;4989398;28;20456;-86
2023/01/31 07:05:47;;;;;;;23.83;7.13;;;5.10;99.90;;;;;;4991334;28;20076;-86
2023/01/31 07:08:13;;;;;;;26.60;6.68;;;5.10;99.90;;;;;;4991864;28;20060;-87
2023/01/31 07:10:39;;;;;;;24.75;7.47;;;6.10;99.90;;;;;;4976874;28;20046;-85
2023/01/31 07:13:04;;;;;;;27.55;7.30;;;5.10;99.90;;;;;;4990254;28;20042;-85
2023/01/31 07:15:30;;;;;;;17.35;6.80;;;5.20;99.90;;;;;;4975875;28;20089;-89
2023/01/31 07:17:59;;;;;;;30.52;6.95;;;5.10;99.90;;;;;;4977499;28;20490;-85
2023/01/31 07:20:25;;;;;;;20.63;6.85;;;5.10;99.90;;;;;;5003881;28;20103;-84
2023/01/31 07:22:58;;;;;;;27.13;6.78;;;5.20;99.90;;;;;;4974251;28;20077;-84
2023/01/31 07:25:27;;;;;;;22.10;6.18;;;5.20;99.90;;;;;;5004098;28;20101;-87
2023/01/31 07:27:52;;;;;;;25.75;5.97;;;5.20;99.90;;;;;;4993337;28;20104;-85
2023/01/31 07:30:18;;;;;;;20.33;5.85;;;5.90;99.90;;;;;;4973847;28;20053;-84
2023/01/31 07:32:44;;;;;;;22.88;5.50;;;5.30;99.90;;;;;;4992222;28;20037;-86
2023/01/31 07:35:10;;;;;;;23.50;5.95;;;5.30;99.90;;;;;;4993310;28;20408;-88
2023/01/31 07:37:36;;;;;;;20.83;6.53;;;5.30;99.90;;;;;;4977132;28;20049;-86
2023/01/31 07:40:03;;;;;;;19.85;5.05;;;5.40;99.90;;;;;;4974666;28;20066;-84
2023/01/31 07:42:29;;;;;;;26.58;5.25;;;5.40;99.90;;;;;;4989533;28;20051;-87
2023/01/31 07:44:55;;;;;;;17.95;4.95;;;5.40;99.90;;;;;;4989919;28;20101;-84
2023/01/31 07:47:20;;;;;;;14.43;4.57;;;5.40;99.90;;;;;;4989626;28;20046;-86
2023/01/31 07:49:49;;;;;;;21.70;5.50;;;5.50;99.90;;;;;;4974512;28;20054;-84
2023/01/31 07:52:15;;;;;;;16.52;5.03;;;5.50;99.90;;;;;;4973943;28;20528;-87
2023/01/31 07:54:40;;;;;;;21.75;4.97;;;5.50;99.90;;;;;;4988063;28;20053;-85
2023/01/31 07:57:06;;;;;;;19.98;5.20;;;5.50;99.90;;;;;;4974402;28;20038;-87
2023/01/31 07:59:35;;;;;;;21.25;4.95;;;5.50;99.90;;;;;;4990228;28;20049;-83
2023/01/31 08:04:45;;;;;;;15.60;4.85;;;5.60;99.90;;;;;;5000249;28;20550;-87
2023/01/31 08:07:11;;;;;;;14.52;4.65;;;5.60;99.90;;;;;;4982378;28;20077;-84
2023/01/31 08:09:37;;;;;;;20.73;5.40;;;5.60;99.90;;;;;;4991992;28;20069;-84
2023/01/31 08:12:04;;;;;;;22.10;4.55;;;5.60;99.90;;;;;;4991446;28;20562;-83
2023/01/31 08:14:31;;;;;;;18.52;4.57;;;5.70;99.90;;;;;;4991245;28;20056;-83
2023/01/31 08:16:57;;;;;;;17.02;4.60;;;5.70;99.90;;;;;;4992180;28;20052;-83
2023/01/31 08:19:22;;;;;;;16.73;4.80;;;5.70;99.90;;;;;;4991635;28;20053;-87
2023/01/31 08:21:51;;;;;;;19.40;4.50;;;5.70;99.90;;;;;;4974186;28;20144;-82
2023/01/31 08:24:16;;;;;;;14.43;4.57;;;6.10;99.90;;;;;;4972286;28;20471;-83
2023/01/31 08:26:42;;;;;;;16.20;4.75;;;5.70;99.90;;;;;;4972870;28;20146;-84
2023/01/31 08:29:08;;;;;;;18.38;4.68;;;5.70;99.90;;;;;;4972970;28;20433;-82
2023/01/31 08:31:34;;;;;;;23.38;4.70;;;5.70;99.90;;;;;;4994309;28;20042;-84
2023/01/31 08:33:59;;;;;;;18.25;5.60;;;5.80;99.90;;;;;;4972460;28;20038;-86
2023/01/31 08:36:31;;;;;;;17.33;5.38;;;5.80;99.90;;;;;;4971651;28;20049;-83
2023/01/31 08:38:57;;;;;;;15.73;4.93;;;5.80;99.90;;;;;;4972826;28;20408;-85
2023/01/31 08:41:24;;;;;;;16.48;4.65;;;5.90;99.90;;;;;;4972548;28;20050;-84
2023/01/31 08:43:50;;;;;;;19.20;4.35;;;5.90;99.90;;;;;;4990107;28;20043;-85
2023/01/31 08:46:16;;;;;;;13.48;4.43;;;5.90;99.90;;;;;;4972603;28;20069;-87
2023/01/31 08:48:42;;;;;;;16.77;5.32;;;6.60;99.90;;;;;;4955974;28;20213;-84
2023/01/31 08:51:10;;;;;;;14.88;4.45;;;6.00;99.90;;;;;;4972334;28;20132;-86
2023/01/31 08:53:42;;;;;;;13.38;3.95;;;6.10;99.90;;;;;;4980440;28;20053;-85
2023/01/31 08:56:09;;;;;;;19.17;4.43;;;6.10;99.90;;;;;;4975293;28;20072;-88
2023/01/31 08:58:36;;;;;;;14.20;3.63;;;6.20;99.90;;;;;;5009382;28;20041;-86
2023/01/31 09:01:07;;;;;;;13.45;4.00;;;6.10;99.90;;;;;;5009154;28;20046;-87
2023/01/31 09:03:33;;;;;;;15.95;4.13;;;6.20;99.90;;;;;;4969680;28;20069;-87
2023/01/31 09:06:05;;;;;;;17.58;4.25;;;6.20;99.90;;;;;;4974458;28;20395;-86
2023/01/31 09:08:31;;;;;;;16.60;3.90;;;6.30;99.90;;;;;;4974805;28;20101;-84
2023/01/31 09:10:59;;;;;;;20.17;4.10;;;6.30;99.90;;;;;;4971368;28;20548;-86
2023/01/31 09:13:25;;;;;;;11.75;3.67;;;6.30;99.90;;;;;;4972373;28;20042;-88
2023/01/31 09:16:03;;;;;;;14.10;4.20;;;6.60;99.90;;;;;;4973294;28;20046;-87
2023/01/31 09:18:28;;;;;;;16.52;4.40;;;6.30;99.90;;;;;;4985644;28;20052;-88
2023/01/31 09:20:54;;;;;;;18.95;4.72;;;6.70;99.90;;;;;;4974536;28;20054;-86
2023/01/31 09:23:21;;;;;;;15.95;4.47;;;6.40;99.90;;;;;;4955777;28;20109;-84
2023/01/31 09:25:58;;;;;;;15.73;3.75;;;6.30;99.90;;;;;;4975826;28;20099;-85
2023/01/31 09:28:25;;;;;;;13.45;4.05;;;6.40;99.90;;;;;;4990383;28;20460;-83
2023/01/31 09:30:52;;;;;;;13.90;3.92;;;6.40;99.90;;;;;;4991065;28;20125;-87
2023/01/31 09:33:19;;;;;;;13.90;3.67;;;6.50;99.90;;;;;;4974075;28;20936;-84
2023/01/31 09:35:56;;;;;;;12.43;3.13;;;6.50;99.90;;;;;;4990335;28;20058;-84
2023/01/31 09:38:22;;;;;;;20.50;4.07;;;6.50;99.90;;;;;;4981805;28;20184;-88
2023/01/31 09:40:48;;;;;;;13.15;3.45;;;6.50;99.90;;;;;;5000909;28;20488;-86
2023/01/31 09:43:16;;;;;;;19.58;4.05;;;6.60;99.90;;;;;;4971801;28;20417;-86
2023/01/31 09:45:44;;;;;;;14.52;3.75;;;6.70;99.90;;;;;;4971268;28;20137;-84
2023/01/31 09:48:17;;;;;;;15.57;3.67;;;6.70;99.90;;;;;;4976535;28;20432;-85
2023/01/31 09:50:48;;;;;;;14.77;3.30;;;6.80;99.90;;;;;;4992921;28;20046;-84
2023/01/31 09:53:20;;;;;;;12.75;3.40;;;6.80;99.90;;;;;;4967223;28;20054;-84
2023/01/31 09:56:08;;;;;;;21.63;3.92;;;7.30;99.90;;;;;;4970849;28;20046;-85
2023/01/31 09:58:55;;;;;;;16.08;3.58;;;6.90;99.90;;;;;;4965018;28;20480;-89
2023/01/31 10:01:39;;;;;;;11.02;3.42;;;6.90;99.90;;;;;;4980209;28;20054;-86
2023/01/31 10:04:14;;;;;;;14.38;4.07;;;6.90;99.90;;;;;;4974075;28;20052;-89
2023/01/31 10:07:03;;;;;;;16.13;3.17;;;7.00;99.90;;;;;;4986220;28;20038;-86
2023/01/31 10:09:52;;;;;;;22.60;4.50;;;7.00;99.90;;;;;;4952302;28;20125;-87
2023/01/31 10:12:35;;;;;;;12.90;3.83;;;7.00;99.90;;;;;;4971810;28;20504;-85
2023/01/31 10:15:28;;;;;;;18.45;3.42;;;7.10;99.90;;;;;;5003853;28;21385;-89
2023/01/31 10:18:00;;;;;;;11.93;3.88;;;7.40;99.90;;;;;;4946257;28;20065;-88
2023/01/31 10:20:49;;;;;;;14.50;4.15;;;7.10;99.90;;;;;;4971465;28;20050;-86
2023/01/31 10:23:24;;;;;;;15.90;3.83;;;7.10;99.90;;;;;;4957081;28;20145;-86
2023/01/31 10:26:15;;;;;;;13.05;4.43;;;7.40;99.90;;;;;;4982516;28;20424;-88
2023/01/31 10:28:49;;;;;;;15.93;4.53;;;7.10;99.90;;;;;;4978534;28;20046;-87
2023/01/31 10:31:37;;;;;;;12.85;3.85;;;7.00;99.90;;;;;;4998451;28;20149;-86
2023/01/31 10:34:08;;;;;;;11.65;3.65;;;7.00;99.90;;;;;;4970677;28;20038;-84
2023/01/31 10:36:42;;;;;;;17.92;4.50;;;7.00;99.90;;;;;;4969580;28;20046;-85
2023/01/31 10:39:26;;;;;;;13.45;4.68;;;7.00;99.90;;;;;;4972808;28;20051;-83
2023/01/31 10:42:10;;;;;;;14.65;3.95;;;7.10;99.90;;;;;;4985740;28;20045;-85
2023/01/31 10:44:57;;;;;;;18.05;3.95;;;7.00;99.90;;;;;;4992381;28;20045;-85
2023/01/31 10:47:59;;;;;;;12.35;4.40;;;7.10;99.90;;;;;;5000710;28;20142;-85
2023/01/31 10:50:39;;;;;;;17.35;4.90;;;7.00;99.90;;;;;;4993356;28;20049;-83
2023/01/31 10:53:16;;;;;;;14.40;3.63;;;7.00;99.90;;;;;;4990712;28;20045;-85
2023/01/31 10:56:05;;;;;;;17.50;4.15;;;7.00;99.90;;;;;;4977687;28;20048;-84
2023/01/31 10:58:31;;;;;;;14.98;4.05;;;6.90;99.90;;;;;;4994020;28;20087;-84
2023/01/31 11:01:01;;;;;;;17.38;4.40;;;6.90;99.90;;;;;;4994013;28;20053;-85
2023/01/31 11:03:27;;;;;;;14.55;4.43;;;6.80;99.90;;;;;;4993781;28;20125;-84
2023/01/31 11:05:55;;;;;;;15.43;4.70;;;6.80;99.90;;;;;;4973327;28;20125;-85
2023/01/31 11:08:44;;;;;;;12.30;5.13;;;6.80;99.90;;;;;;4975837;28;20108;-84
2023/01/31 11:11:21;;;;;;;18.13;4.60;;;6.80;99.90;;;;;;4992258;28;20052;-84
2023/01/31 11:14:05;;;;;;;13.73;4.00;;;6.70;99.90;;;;;;4972637;28;20164;-84
2023/01/31 11:16:39;;;;;;;19.05;4.93;;;6.80;99.90;;;;;;4986040;28;20408;-85
2023/01/31 11:19:42;;;;;;;16.05;4.53;;;6.80;99.90;;;;;;4993620;28;20044;-84
2023/01/31 11:22:16;;;;;;;;;;;6.80;99.90;;;;;;4976069;28;20045;-86
2023/01/31 11:24:48;;;;;;;19.50;5.20;;;6.80;99.90;;;;;;4975054;28;20344;-85
2023/01/31 11:27:30;;;;;;;18.20;4.57;;;6.80;99.90;;;;;;5005676;28;20153;-86
2023/01/31 11:29:57;;;;;;;17.42;4.13;;;6.80;99.90;;;;;;4959855;28;20038;-87
2023/01/31 11:32:35;;;;;;;22.08;5.78;;;6.90;99.90;;;;;;4973196;28;20092;-86
2023/01/31 11:35:20;;;;;;;22.02;5.25;;;6.90;99.90;;;;;;4991469;28;20507;-87
2023/01/31 11:37:53;;;;;;;15.18;3.92;;;6.90;99.90;;;;;;4987480;28;20038;-86
2023/01/31 11:40:41;;;;;;;16.88;3.88;;;6.80;99.90;;;;;;4975776;28;20050;-84
2023/01/31 11:43:36;;;;;;;19.50;4.82;;;6.90;99.90;;;;;;4971616;28;20050;-85
2023/01/31 11:46:02;;;;;;;13.75;4.57;;;6.10;99.90;;;;;;4973509;28;20390;-89
2023/01/31 11:48:40;;;;;;;19.98;4.47;;;6.80;99.90;;;;;;4984785;28;20471;-85
2023/01/31 11:51:06;;;;;;;13.73;4.00;;;6.80;99.90;;;;;;4991973;28;20054;-86
2023/01/31 11:53:37;;;;;;;18.38;4.20;;;6.90;99.90;;;;;;4992341;28;20459;-85
2023/01/31 11:56:14;;;;;;;15.98;4.95;;;6.90;99.90;;;;;;4985396;28;20069;-86
2023/01/31 11:58:42;;;;;;;17.92;5.05;;;6.80;99.90;;;;;;4989372;28;20038;-86
2023/01/31 12:01:14;;;;;;;18.67;3.83;;;6.90;99.90;;;;;;5010082;28;20046;-86
2023/01/31 12:03:50;;;;;;;21.13;4.07;;;6.90;99.90;;;;;;4991298;28;20189;-85
2023/01/31 12:06:32;;;;;;;22.75;4.50;;;6.90;99.90;;;;;;4977511;28;20053;-86
2023/01/31 12:09:00;;;;;;;14.38;3.50;;;6.90;99.90;;;;;;4972081;28;20538;-85
2023/01/31 12:11:31;;;;;;;21.33;4.75;;;7.00;99.90;;;;;;4991626;28;20535;-87
2023/01/31 12:14:18;;;;;;;20.67;4.25;;;7.10;99.90;;;;;;4975209;28;20046;-88
2023/01/31 12:16:46;;;;;;;19.10;4.30;;;7.10;99.90;;;;;;4973471;28;20065;-86
2023/01/31 12:19:11;;;;;;;17.88;4.07;;;7.20;99.90;;;;;;4959055;28;20103;-86
2023/01/31 12:22:02;;;;;;;16.05;3.58;;;7.20;99.90;;;;;;4992759;28;20436;-87
2023/01/31 12:24:49;;;;;;;17.83;4.57;;;7.20;99.90;;;;;;4991800;28;20501;-86
2023/01/31 12:27:48;;;;;;;11.02;3.35;;;7.30;99.90;;;;;;4987245;28;20129;-86
2023/01/31 12:30:33;;;;;;;16.35;3.75;;;7.30;99.90;;;;;;4979256;28;20061;-86
2023/01/31 12:33:08;;;;;;;14.52;3.40;;;7.40;99.90;;;;;;5008990;28;20132;-84
2023/01/31 12:35:55;;;;;;;18.73;4.13;;;7.40;99.90;;;;;;4974745;28;20168;-86
2023/01/31 12:38:45;;;;;;;11.18;3.38;;;7.50;99.90;;;;;;4973256;28;20433;-87
2023/01/31 12:41:24;;;;;;;13.63;3.28;;;7.60;99.90;;;;;;4956308;28;20393;-86
2023/01/31 12:44:12;;;;;;;10.93;2.83;;;7.60;99.90;;;;;;4959246;28;20442;-85
2023/01/31 12:46:52;;;;;;;12.93;3.75;;;7.60;99.90;;;;;;4995614;28;20072;-87
2023/01/31 12:49:42;;;;;;;16.25;3.60;;;7.20;99.90;;;;;;4990517;28;20396;-86
2023/01/31 12:52:19;;;;;;;15.77;3.78;;;7.70;99.90;;;;;;4992044;28;20076;-87
2023/01/31 12:54:59;;;;;;;13.98;4.20;;;7.80;99.90;;;;;;4990797;28;20045;-85
2023/01/31 12:57:46;;;;;;;11.93;3.13;;;7.80;99.90;;;;;;5009538;28;20044;-87
2023/01/31 13:00:40;;;;;;;11.98;3.80;;;7.90;99.90;;;;;;4990055;28;20137;-87
2023/01/31 13:03:36;;;;;;;15.90;3.80;;;7.90;99.90;;;;;;4990664;28;20085;-86
2023/01/31 13:06:21;;;;;;;11.50;3.75;;;8.00;99.90;;;;;;4988066;28;20043;-86
2023/01/31 13:09:14;;;;;;;9.55;3.22;;;8.00;99.90;;;;;;4971998;28;20042;-87
2023/01/31 13:11:47;;;;;;;15.15;3.00;;;8.40;99.90;;;;;;4965255;28;20483;-85
2023/01/31 13:14:26;;;;;;;8.85;2.92;;;8.30;99.90;;;;;;4987889;28;20085;-85
2023/01/31 13:17:00;;;;;;;13.40;2.92;;;8.30;99.90;;;;;;4988807;28;20097;-85
2023/01/31 13:19:47;;;;;;;10.15;2.83;;;8.40;99.90;;;;;;4988149;28;20540;-87